sensor_id;sensor_type;location;lat;lon;timestamp;temperature;humidity
20690;DHT22;10504;48.762;8.996;2024-02-04T00:00:43;6.70;99.90
20690;DHT22;10504;48.762;8.996;2024-02-04T00:03:09;6.70;99.90
20690;DHT22;10504;48.762;8.996;2024-02-04T00:05:34;6.70;99.90
20690;DHT22;10504;48.762;8.996;2024-02-04T00:08:00;6.70;99.90
20690;DHT22;10504;48.762;8.996;2024-02-04T00:10:27;6.70;99.90
20690;DHT22;10504;48.762;8.996;2024-02-04T00:12:53;6.70;99.90
20690;DHT22;10504;48.762;8.996;2024-02-04T00:15:19;6.70;99.90
20690;DHT22;10504;48.762;8.996;2024-02-04T00:17:45;6.70;99.90
20690;DHT22;10504;48.762;8.996;2024-02-04T00:20:10;6.70;99.90
20690;DHT22;10504;48.762;8.996;2024-02-04T00:22:36;6.70;99.90
20690;DHT22;10504;48.762;8.996;2024-02-04T00:25:02;6.70;99.90
20690;DHT22;10504;48.762;8.996;2024-02-04T00:27:33;6.60;99.90
20690;DHT22;10504;48.762;8.996;2024-02-04T00:29:59;6.60;99.90
20690;DHT22;10504;48.762;8.996;2024-02-04T00:32:26;6.60;99.90
20690;DHT22;10504;48.762;8.996;2024-02-04T00:34:52;6.60;99.90
20690;DHT22;10504;48.762;8.996;2024-02-04T00:37:18;6.50;99.90
20690;DHT22;10504;48.762;8.996;2024-02-04T00:39:44;6.50;99.90
20690;DHT22;10504;48.762;8.996;2024-02-04T00:42:09;6.50;99.90
20690;DHT22;10504;48.762;8.996;2024-02-04T00:44:37;6.50;99.90
20690;DHT22;10504;48.762;8.996;2024-02-04T00:47:03;6.50;99.90
20690;DHT22;10504;48.762;8.996;2024-02-04T00:49:29;6.50;99.90
20690;DHT22;10504;48.762;8.996;2024-02-04T00:51:54;6.50;99.90
20690;DHT22;10504;48.762;8.996;2024-02-04T00:54:20;6.50;99.90
20690;DHT22;10504;48.762;8.996;2024-02-04T00:56:46;6.50;99.90
20690;DHT22;10504;48.762;8.996;2024-02-04T00:59:11;6.50;99.90
20690;DHT22;10504;48.762;8.996;2024-02-04T01:01:38;6.50;99.90
20690;DHT22;10504;48.762;8.996;2024-02-04T01:04:04;6.50;99.90
20690;DHT22;10504;48.762;8.996;2024-02-04T01:06:30;6.50;99.90
20690;DHT22;10504;48.762;8.996;2024-02-04T01:08:56;6.40;99.90
20690;DHT22;10504;48.762;8.996;2024-02-04T01:11:22;6.50;99.90
20690;DHT22;10504;48.762;8.996;2024-02-04T01:13:48;6.50;99.90
20690;DHT22;10504;48.762;8.996;2024-02-04T01:16:14;6.40;99.90
20690;DHT22;10504;48.762;8.996;2024-02-04T01:18:39;6.50;99.90
20690;DHT22;10504;48.762;8.996;2024-02-04T01:21:05;6.50;99.90
20690;DHT22;10504;48.762;8.996;2024-02-04T01:23:30;6.40;99.90
20690;DHT22;10504;48.762;8.996;2024-02-04T01:25:56;6.40;99.90
20690;DHT22;10504;48.762;8.996;2024-02-04T01:28:22;6.50;99.90
20690;DHT22;10504;48.762;8.996;2024-02-04T01:30:47;6.40;99.90
20690;DHT22;10504;48.762;8.996;2024-02-04T01:33:13;6.40;99.90
20690;DHT22;10504;48.762;8.996;2024-02-04T01:35:39;6.40;99.90
20690;DHT22;10504;48.762;8.996;2024-02-04T01:38:04;6.40;99.90
20690;DHT22;10504;48.762;8.996;2024-02-04T01:40:30;6.40;99.90
20690;DHT22;10504;48.762;8.996;2024-02-04T01:42:56;6.40;99.90
20690;DHT22;10504;48.762;8.996;2024-02-04T01:45:21;6.30;99.90
20690;DHT22;10504;48.762;8.996;2024-02-04T01:47:48;6.30;99.90
20690;DHT22;10504;48.762;8.996;2024-02-04T01:50:14;6.30;99.90
20690;DHT22;10504;48.762;8.996;2024-02-04T01:52:41;6.30;99.90
20690;DHT22;10504;48.762;8.996;2024-02-04T01:55:08;6.40;99.90
20690;DHT22;10504;48.762;8.996;2024-02-04T01:57:34;6.40;99.90
20690;DHT22;10504;48.762;8.996;2024-02-04T02:00:00;6.40;99.90
20690;DHT22;10504;48.762;8.996;2024-02-04T02:02:26;6.40;99.90
20690;DHT22;10504;48.762;8.996;2024-02-04T02:04:52;6.40;99.90
20690;DHT22;10504;48.762;8.996;2024-02-04T02:07:21;6.40;99.90
20690;DHT22;10504;48.762;8.996;2024-02-04T02:09:47;6.40;99.90
20690;DHT22;10504;48.762;8.996;2024-02-04T02:12:20;6.40;99.90
20690;DHT22;10504;48.762;8.996;2024-02-04T02:14:54;6.50;99.90
20690;DHT22;10504;48.762;8.996;2024-02-04T02:17:27;6.50;99.90
20690;DHT22;10504;48.762;8.996;2024-02-04T02:20:02;6.50;99.90
20690;DHT22;10504;48.762;8.996;2024-02-04T02:25:27;6.50;99.90
20690;DHT22;10504;48.762;8.996;2024-02-04T02:27:53;6.40;99.90
20690;DHT22;10504;48.762;8.996;2024-02-04T02:30:19;6.40;99.90
20690;DHT22;10504;48.762;8.996;2024-02-04T02:32:46;6.40;99.90
20690;DHT22;10504;48.762;8.996;2024-02-04T02:35:13;6.40;99.90
20690;DHT22;10504;48.762;8.996;2024-02-04T02:37:53;6.40;99.90
20690;DHT22;10504;48.762;8.996;2024-02-04T02:43:02;6.40;99.90
20690;DHT22;10504;48.762;8.996;2024-02-04T02:45:28;6.40;99.90
20690;DHT22;10504;48.762;8.996;2024-02-04T02:47:55;6.40;99.90
20690;DHT22;10504;48.762;8.996;2024-02-04T02:50:21;6.40;99.90
20690;DHT22;10504;48.762;8.996;2024-02-04T02:52:47;6.40;99.90
20690;DHT22;10504;48.762;8.996;2024-02-04T02:55:12;6.40;99.90
20690;DHT22;10504;48.762;8.996;2024-02-04T02:57:38;6.40;99.90
20690;DHT22;10504;48.762;8.996;2024-02-04T03:00:04;6.40;99.90
20690;DHT22;10504;48.762;8.996;2024-02-04T03:02:32;6.40;99.90
20690;DHT22;10504;48.762;8.996;2024-02-04T03:04:57;6.40;99.90
20690;DHT22;10504;48.762;8.996;2024-02-04T03:07:23;6.40;99.90
20690;DHT22;10504;48.762;8.996;2024-02-04T03:09:48;6.40;99.90
20690;DHT22;10504;48.762;8.996;2024-02-04T03:12:14;6.40;99.90
20690;DHT22;10504;48.762;8.996;2024-02-04T03:14:40;6.40;99.90
20690;DHT22;10504;48.762;8.996;2024-02-04T03:17:05;6.40;99.90
20690;DHT22;10504;48.762;8.996;2024-02-04T03:19:31;6.40;99.90
20690;DHT22;10504;48.762;8.996;2024-02-04T03:21:57;6.40;99.90
20690;DHT22;10504;48.762;8.996;2024-02-04T03:24:22;6.40;99.90
20690;DHT22;10504;48.762;8.996;2024-02-04T03:26:48;6.40;99.90
20690;DHT22;10504;48.762;8.996;2024-02-04T03:29:13;6.40;99.90
20690;DHT22;10504;48.762;8.996;2024-02-04T03:31:39;6.40;99.90
20690;DHT22;10504;48.762;8.996;2024-02-04T03:34:05;6.40;99.90
20690;DHT22;10504;48.762;8.996;2024-02-04T03:36:31;6.40;99.90
20690;DHT22;10504;48.762;8.996;2024-02-04T03:38:57;6.40;99.90
20690;DHT22;10504;48.762;8.996;2024-02-04T03:41:24;6.40;99.90
20690;DHT22;10504;48.762;8.996;2024-02-04T03:43:50;6.40;99.90
20690;DHT22;10504;48.762;8.996;2024-02-04T03:46:15;6.40;99.90
20690;DHT22;10504;48.762;8.996;2024-02-04T03:48:42;6.40;99.90
20690;DHT22;10504;48.762;8.996;2024-02-04T03:51:08;6.40;99.90
20690;DHT22;10504;48.762;8.996;2024-02-04T03:53:34;6.40;99.90
20690;DHT22;10504;48.762;8.996;2024-02-04T03:55:59;6.40;99.90
20690;DHT22;10504;48.762;8.996;2024-02-04T03:58:25;6.40;99.90
20690;DHT22;10504;48.762;8.996;2024-02-04T04:00:58;6.40;99.90
20690;DHT22;10504;48.762;8.996;2024-02-04T04:03:24;6.40;99.90
20690;DHT22;10504;48.762;8.996;2024-02-04T04:05:50;6.30;99.90
20690;DHT22;10504;48.762;8.996;2024-02-04T04:08:16;6.30;99.90
20690;DHT22;10504;48.762;8.996;2024-02-04T04:10:41;6.30;99.90
20690;DHT22;10504;48.762;8.996;2024-02-04T04:13:07;6.30;99.90
20690;DHT22;10504;48.762;8.996;2024-02-04T04:15:33;6.30;99.90
20690;DHT22;10504;48.762;8.996;2024-02-04T04:17:58;6.40;99.90
20690;DHT22;10504;48.762;8.996;2024-02-04T04:20:24;6.40;99.90
20690;DHT22;10504;48.762;8.996;2024-02-04T04:22:49;6.40;99.90
20690;DHT22;10504;48.762;8.996;2024-02-04T04:25:15;6.40;99.90
20690;DHT22;10504;48.762;8.996;2024-02-04T04:27:43;6.50;99.90
20690;DHT22;10504;48.762;8.996;2024-02-04T04:30:09;6.50;99.90
20690;DHT22;10504;48.762;8.996;2024-02-04T04:32:35;6.50;99.90
20690;DHT22;10504;48.762;8.996;2024-02-04T04:35:01;6.50;99.90
20690;DHT22;10504;48.762;8.996;2024-02-04T04:37:27;6.50;99.90
20690;DHT22;10504;48.762;8.996;2024-02-04T04:39:52;6.50;99.90
20690;DHT22;10504;48.762;8.996;2024-02-04T04:42:18;6.50;99.90
20690;DHT22;10504;48.762;8.996;2024-02-04T04:44:43;6.40;99.90
20690;DHT22;10504;48.762;8.996;2024-02-04T04:47:09;6.40;99.90
20690;DHT22;10504;48.762;8.996;2024-02-04T04:49:35;6.40;99.90
20690;DHT22;10504;48.762;8.996;2024-02-04T04:52:00;6.40;99.90
20690;DHT22;10504;48.762;8.996;2024-02-04T04:54:27;6.40;99.90
20690;DHT22;10504;48.762;8.996;2024-02-04T04:56:53;6.40;99.90
20690;DHT22;10504;48.762;8.996;2024-02-04T04:59:19;6.50;99.90
20690;DHT22;10504;48.762;8.996;2024-02-04T05:01:46;6.50;99.90
20690;DHT22;10504;48.762;8.996;2024-02-04T05:04:11;6.50;99.90
20690;DHT22;10504;48.762;8.996;2024-02-04T05:06:37;6.50;99.90
20690;DHT22;10504;48.762;8.996;2024-02-04T05:09:03;6.50;99.90
20690;DHT22;10504;48.762;8.996;2024-02-04T05:11:28;6.50;99.90
20690;DHT22;10504;48.762;8.996;2024-02-04T05:13:54;6.50;99.90
20690;DHT22;10504;48.762;8.996;2024-02-04T05:16:20;6.40;99.90
20690;DHT22;10504;48.762;8.996;2024-02-04T05:18:45;6.50;99.90
20690;DHT22;10504;48.762;8.996;2024-02-04T05:21:11;6.50;99.90
20690;DHT22;10504;48.762;8.996;2024-02-04T05:23:37;6.50;99.90
20690;DHT22;10504;48.762;8.996;2024-02-04T05:26:04;6.50;99.90
20690;DHT22;10504;48.762;8.996;2024-02-04T05:28:30;6.50;99.90
20690;DHT22;10504;48.762;8.996;2024-02-04T05:30:56;6.50;99.90
20690;DHT22;10504;48.762;8.996;2024-02-04T05:33:21;6.50;99.90
20690;DHT22;10504;48.762;8.996;2024-02-04T05:35:47;6.50;99.90
20690;DHT22;10504;48.762;8.996;2024-02-04T05:38:12;6.40;99.90
20690;DHT22;10504;48.762;8.996;2024-02-04T05:40:38;6.50;99.90
20690;DHT22;10504;48.762;8.996;2024-02-04T05:43:04;6.40;99.90
20690;DHT22;10504;48.762;8.996;2024-02-04T05:45:34;6.50;99.90
20690;DHT22;10504;48.762;8.996;2024-02-04T05:48:00;6.50;99.90
20690;DHT22;10504;48.762;8.996;2024-02-04T05:50:25;6.50;99.90
20690;DHT22;10504;48.762;8.996;2024-02-04T05:52:51;6.50;99.90
20690;DHT22;10504;48.762;8.996;2024-02-04T05:55:17;6.50;99.90
20690;DHT22;10504;48.762;8.996;2024-02-04T05:57:42;6.50;99.90
20690;DHT22;10504;48.762;8.996;2024-02-04T06:00:09;6.50;99.90
20690;DHT22;10504;48.762;8.996;2024-02-04T06:02:36;6.50;99.90
20690;DHT22;10504;48.762;8.996;2024-02-04T06:05:02;6.50;99.90
20690;DHT22;10504;48.762;8.996;2024-02-04T06:07:27;6.50;99.90
20690;DHT22;10504;48.762;8.996;2024-02-04T06:09:54;6.50;99.90
20690;DHT22;10504;48.762;8.996;2024-02-04T06:12:21;6.50;99.90
20690;DHT22;10504;48.762;8.996;2024-02-04T06:14:47;6.50;99.90
20690;DHT22;10504;48.762;8.996;2024-02-04T06:17:13;6.50;99.90
20690;DHT22;10504;48.762;8.996;2024-02-04T06:19:38;6.50;99.90
20690;DHT22;10504;48.762;8.996;2024-02-04T06:22:04;6.60;99.90
20690;DHT22;10504;48.762;8.996;2024-02-04T06:24:29;6.60;99.90
20690;DHT22;10504;48.762;8.996;2024-02-04T06:26:55;6.60;99.90
20690;DHT22;10504;48.762;8.996;2024-02-04T06:29:21;6.70;99.90
20690;DHT22;10504;48.762;8.996;2024-02-04T06:31:47;6.70;99.90
20690;DHT22;10504;48.762;8.996;2024-02-04T06:34:12;6.70;99.90
20690;DHT22;10504;48.762;8.996;2024-02-04T06:36:41;6.70;99.90
20690;DHT22;10504;48.762;8.996;2024-02-04T06:39:07;6.80;99.90
20690;DHT22;10504;48.762;8.996;2024-02-04T06:41:34;6.80;99.90
20690;DHT22;10504;48.762;8.996;2024-02-04T06:44:00;6.80;99.90
20690;DHT22;10504;48.762;8.996;2024-02-04T06:46:27;6.80;99.90
20690;DHT22;10504;48.762;8.996;2024-02-04T06:48:53;6.80;99.90
20690;DHT22;10504;48.762;8.996;2024-02-04T06:51:19;6.80;99.90
20690;DHT22;10504;48.762;8.996;2024-02-04T06:53:44;6.80;99.90
20690;DHT22;10504;48.762;8.996;2024-02-04T06:56:10;6.80;99.90
20690;DHT22;10504;48.762;8.996;2024-02-04T06:58:40;6.80;99.90
20690;DHT22;10504;48.762;8.996;2024-02-04T07:01:06;6.80;99.90
20690;DHT22;10504;48.762;8.996;2024-02-04T07:03:31;6.90;99.90
20690;DHT22;10504;48.762;8.996;2024-02-04T07:05:58;6.90;99.90
20690;DHT22;10504;48.762;8.996;2024-02-04T07:08:24;6.80;99.90
20690;DHT22;10504;48.762;8.996;2024-02-04T07:10:50;6.80;99.90
20690;DHT22;10504;48.762;8.996;2024-02-04T07:13:15;6.80;99.90
20690;DHT22;10504;48.762;8.996;2024-02-04T07:15:41;6.70;99.90
20690;DHT22;10504;48.762;8.996;2024-02-04T07:18:07;6.70;99.90
20690;DHT22;10504;48.762;8.996;2024-02-04T07:20:33;6.70;99.90
20690;DHT22;10504;48.762;8.996;2024-02-04T07:22:58;6.70;99.90
20690;DHT22;10504;48.762;8.996;2024-02-04T07:25:24;6.70;99.90
20690;DHT22;10504;48.762;8.996;2024-02-04T07:27:50;6.70;99.90
20690;DHT22;10504;48.762;8.996;2024-02-04T07:30:15;6.70;99.90
20690;DHT22;10504;48.762;8.996;2024-02-04T07:32:41;6.70;99.90
20690;DHT22;10504;48.762;8.996;2024-02-04T07:35:07;6.70;99.90
20690;DHT22;10504;48.762;8.996;2024-02-04T07:37:34;6.60;99.90
20690;DHT22;10504;48.762;8.996;2024-02-04T07:40:00;6.60;99.90
20690;DHT22;10504;48.762;8.996;2024-02-04T07:42:27;6.70;99.90
20690;DHT22;10504;48.762;8.996;2024-02-04T07:44:52;6.60;99.90
20690;DHT22;10504;48.762;8.996;2024-02-04T07:47:18;6.70;99.90
20690;DHT22;10504;48.762;8.996;2024-02-04T07:49:47;6.70;99.90
20690;DHT22;10504;48.762;8.996;2024-02-04T07:52:12;6.70;99.90
20690;DHT22;10504;48.762;8.996;2024-02-04T07:54:38;6.70;99.90
20690;DHT22;10504;48.762;8.996;2024-02-04T07:57:04;6.70;99.90
20690;DHT22;10504;48.762;8.996;2024-02-04T07:59:29;6.70;99.90
20690;DHT22;10504;48.762;8.996;2024-02-04T08:01:55;6.80;99.90
20690;DHT22;10504;48.762;8.996;2024-02-04T08:04:21;6.80;99.90
20690;DHT22;10504;48.762;8.996;2024-02-04T08:06:46;6.80;99.90
20690;DHT22;10504;48.762;8.996;2024-02-04T08:09:12;6.90;99.90
20690;DHT22;10504;48.762;8.996;2024-02-04T08:11:38;6.90;99.90
20690;DHT22;10504;48.762;8.996;2024-02-04T08:14:03;6.80;99.90
20690;DHT22;10504;48.762;8.996;2024-02-04T08:16:29;6.90;99.90
20690;DHT22;10504;48.762;8.996;2024-02-04T08:18:55;6.90;99.90
20690;DHT22;10504;48.762;8.996;2024-02-04T08:21:21;6.90;99.90
20690;DHT22;10504;48.762;8.996;2024-02-04T08:23:47;6.90;99.90
20690;DHT22;10504;48.762;8.996;2024-02-04T08:26:12;6.90;99.90
20690;DHT22;10504;48.762;8.996;2024-02-04T08:28:38;6.90;99.90
20690;DHT22;10504;48.762;8.996;2024-02-04T08:31:04;7.00;99.90
20690;DHT22;10504;48.762;8.996;2024-02-04T08:33:30;7.00;99.90
20690;DHT22;10504;48.762;8.996;2024-02-04T08:35:55;7.00;99.90
20690;DHT22;10504;48.762;8.996;2024-02-04T08:38:21;7.00;99.90
20690;DHT22;10504;48.762;8.996;2024-02-04T08:40:47;7.00;99.90
20690;DHT22;10504;48.762;8.996;2024-02-04T08:43:12;7.10;99.90
20690;DHT22;10504;48.762;8.996;2024-02-04T08:45:38;7.10;99.90
20690;DHT22;10504;48.762;8.996;2024-02-04T08:48:04;7.20;99.90
20690;DHT22;10504;48.762;8.996;2024-02-04T08:50:29;7.20;99.90
20690;DHT22;10504;48.762;8.996;2024-02-04T08:52:55;7.20;99.90
20690;DHT22;10504;48.762;8.996;2024-02-04T08:55:21;7.20;99.90
20690;DHT22;10504;48.762;8.996;2024-02-04T08:57:46;7.30;99.90
20690;DHT22;10504;48.762;8.996;2024-02-04T09:00:14;7.30;99.90
20690;DHT22;10504;48.762;8.996;2024-02-04T09:02:40;7.40;99.90
20690;DHT22;10504;48.762;8.996;2024-02-04T09:05:06;7.40;99.90
20690;DHT22;10504;48.762;8.996;2024-02-04T09:07:32;7.40;99.90
20690;DHT22;10504;48.762;8.996;2024-02-04T09:09:57;7.40;99.90
20690;DHT22;10504;48.762;8.996;2024-02-04T09:12:23;7.40;99.90
20690;DHT22;10504;48.762;8.996;2024-02-04T09:14:48;7.40;99.90
20690;DHT22;10504;48.762;8.996;2024-02-04T09:17:14;7.40;99.90
20690;DHT22;10504;48.762;8.996;2024-02-04T09:19:40;7.50;99.90
20690;DHT22;10504;48.762;8.996;2024-02-04T09:22:05;7.50;99.90
20690;DHT22;10504;48.762;8.996;2024-02-04T09:24:31;7.50;99.90
20690;DHT22;10504;48.762;8.996;2024-02-04T09:26:57;7.50;99.90
20690;DHT22;10504;48.762;8.996;2024-02-04T09:29:23;7.60;99.90
20690;DHT22;10504;48.762;8.996;2024-02-04T09:31:48;7.50;99.90
20690;DHT22;10504;48.762;8.996;2024-02-04T09:34:18;7.60;99.90
20690;DHT22;10504;48.762;8.996;2024-02-04T09:36:44;7.60;99.90
20690;DHT22;10504;48.762;8.996;2024-02-04T09:39:10;7.50;99.90
20690;DHT22;10504;48.762;8.996;2024-02-04T09:41:35;7.60;99.90
20690;DHT22;10504;48.762;8.996;2024-02-04T09:44:02;7.60;99.90
20690;DHT22;10504;48.762;8.996;2024-02-04T09:46:29;7.60;99.90
20690;DHT22;10504;48.762;8.996;2024-02-04T09:48:55;7.70;99.90
20690;DHT22;10504;48.762;8.996;2024-02-04T09:51:21;7.70;99.90
20690;DHT22;10504;48.762;8.996;2024-02-04T09:53:52;7.80;99.90
20690;DHT22;10504;48.762;8.996;2024-02-04T09:56:18;7.80;99.90
20690;DHT22;10504;48.762;8.996;2024-02-04T09:58:44;7.90;99.90
20690;DHT22;10504;48.762;8.996;2024-02-04T10:01:10;8.00;99.90
20690;DHT22;10504;48.762;8.996;2024-02-04T10:03:37;8.10;99.90
20690;DHT22;10504;48.762;8.996;2024-02-04T10:06:02;8.20;99.90
20690;DHT22;10504;48.762;8.996;2024-02-04T10:08:28;8.20;99.90
20690;DHT22;10504;48.762;8.996;2024-02-04T10:10:54;8.20;99.90
20690;DHT22;10504;48.762;8.996;2024-02-04T10:13:20;8.30;99.90
20690;DHT22;10504;48.762;8.996;2024-02-04T10:15:47;8.20;99.90
20690;DHT22;10504;48.762;8.996;2024-02-04T10:18:13;8.20;99.90
20690;DHT22;10504;48.762;8.996;2024-02-04T10:20:39;8.20;99.90
20690;DHT22;10504;48.762;8.996;2024-02-04T10:23:05;8.20;99.90
20690;DHT22;10504;48.762;8.996;2024-02-04T10:25:30;8.30;99.90
20690;DHT22;10504;48.762;8.996;2024-02-04T10:27:57;8.30;99.90
20690;DHT22;10504;48.762;8.996;2024-02-04T10:30:23;8.30;99.90
20690;DHT22;10504;48.762;8.996;2024-02-04T10:32:52;8.40;99.90
20690;DHT22;10504;48.762;8.996;2024-02-04T10:35:20;8.40;99.90
20690;DHT22;10504;48.762;8.996;2024-02-04T10:37:51;8.40;99.90
20690;DHT22;10504;48.762;8.996;2024-02-04T10:40:17;8.50;99.90
20690;DHT22;10504;48.762;8.996;2024-02-04T10:42:43;8.50;99.90
20690;DHT22;10504;48.762;8.996;2024-02-04T10:45:10;8.60;99.90
20690;DHT22;10504;48.762;8.996;2024-02-04T10:47:39;8.60;99.90
20690;DHT22;10504;48.762;8.996;2024-02-04T10:50:08;8.70;99.90
20690;DHT22;10504;48.762;8.996;2024-02-04T10:52:38;8.70;99.90
20690;DHT22;10504;48.762;8.996;2024-02-04T10:55:08;8.70;99.90
20690;DHT22;10504;48.762;8.996;2024-02-04T10:57:38;8.80;99.90
20690;DHT22;10504;48.762;8.996;2024-02-04T11:00:05;8.70;99.90
20690;DHT22;10504;48.762;8.996;2024-02-04T11:02:36;8.80;99.90
20690;DHT22;10504;48.762;8.996;2024-02-04T11:05:04;8.70;99.90
20690;DHT22;10504;48.762;8.996;2024-02-04T11:07:34;8.70;99.90
20690;DHT22;10504;48.762;8.996;2024-02-04T11:10:01;8.70;99.90
20690;DHT22;10504;48.762;8.996;2024-02-04T11:12:31;8.70;99.90
20690;DHT22;10504;48.762;8.996;2024-02-04T11:15:01;8.80;99.90
20690;DHT22;10504;48.762;8.996;2024-02-04T11:20:11;8.90;99.90
20690;DHT22;10504;48.762;8.996;2024-02-04T11:25:52;9.00;99.90
20690;DHT22;10504;48.762;8.996;2024-02-04T11:28:21;9.10;99.90
20690;DHT22;10504;48.762;8.996;2024-02-04T11:30:48;9.10;99.90
20690;DHT22;10504;48.762;8.996;2024-02-04T11:33:18;9.10;99.90
20690;DHT22;10504;48.762;8.996;2024-02-04T11:35:44;9.10;99.90
20690;DHT22;10504;48.762;8.996;2024-02-04T11:38:10;9.10;99.90
20690;DHT22;10504;48.762;8.996;2024-02-04T11:40:37;9.20;99.90
20690;DHT22;10504;48.762;8.996;2024-02-04T11:43:07;9.20;99.90
20690;DHT22;10504;48.762;8.996;2024-02-04T11:45:42;9.20;99.90
20690;DHT22;10504;48.762;8.996;2024-02-04T11:48:10;9.10;99.90
20690;DHT22;10504;48.762;8.996;2024-02-04T11:50:37;9.10;99.90
20690;DHT22;10504;48.762;8.996;2024-02-04T11:53:10;9.10;99.90
20690;DHT22;10504;48.762;8.996;2024-02-04T11:55:38;9.10;99.90
20690;DHT22;10504;48.762;8.996;2024-02-04T11:58:05;9.10;99.90
20690;DHT22;10504;48.762;8.996;2024-02-04T12:00:35;9.10;99.90
20690;DHT22;10504;48.762;8.996;2024-02-04T12:03:02;9.10;99.90
20690;DHT22;10504;48.762;8.996;2024-02-04T12:05:30;9.10;99.90
20690;DHT22;10504;48.762;8.996;2024-02-04T12:07:57;9.10;99.90
20690;DHT22;10504;48.762;8.996;2024-02-04T12:10:23;9.00;99.90
20690;DHT22;10504;48.762;8.996;2024-02-04T12:12:49;9.00;99.90
20690;DHT22;10504;48.762;8.996;2024-02-04T12:15:14;9.00;99.90
20690;DHT22;10504;48.762;8.996;2024-02-04T12:17:40;9.00;99.90
20690;DHT22;10504;48.762;8.996;2024-02-04T12:20:06;9.00;99.90
20690;DHT22;10504;48.762;8.996;2024-02-04T12:22:32;8.90;99.90
20690;DHT22;10504;48.762;8.996;2024-02-04T12:24:58;9.00;99.90
20690;DHT22;10504;48.762;8.996;2024-02-04T12:27:26;8.90;99.90
20690;DHT22;10504;48.762;8.996;2024-02-04T12:29:52;8.90;99.90
20690;DHT22;10504;48.762;8.996;2024-02-04T12:32:18;8.90;99.90
20690;DHT22;10504;48.762;8.996;2024-02-04T12:34:50;8.90;99.90
20690;DHT22;10504;48.762;8.996;2024-02-04T12:37:19;9.00;99.90
20690;DHT22;10504;48.762;8.996;2024-02-04T12:39:45;9.00;99.90
20690;DHT22;10504;48.762;8.996;2024-02-04T12:42:15;9.00;99.90
20690;DHT22;10504;48.762;8.996;2024-02-04T12:44:44;9.00;99.90
20690;DHT22;10504;48.762;8.996;2024-02-04T12:47:10;9.00;99.90
20690;DHT22;10504;48.762;8.996;2024-02-04T12:49:36;9.00;99.90
20690;DHT22;10504;48.762;8.996;2024-02-04T12:52:06;9.00;99.90
20690;DHT22;10504;48.762;8.996;2024-02-04T12:54:40;9.00;99.90
20690;DHT22;10504;48.762;8.996;2024-02-04T12:57:07;9.10;99.90
20690;DHT22;10504;48.762;8.996;2024-02-04T12:59:33;9.10;99.90
20690;DHT22;10504;48.762;8.996;2024-02-04T13:02:05;9.10;99.90
20690;DHT22;10504;48.762;8.996;2024-02-04T13:04:35;9.20;99.90
20690;DHT22;10504;48.762;8.996;2024-02-04T13:07:01;9.20;99.90
20690;DHT22;10504;48.762;8.996;2024-02-04T13:09:27;9.10;99.90
20690;DHT22;10504;48.762;8.996;2024-02-04T13:12:05;9.20;99.90
20690;DHT22;10504;48.762;8.996;2024-02-04T13:14:31;9.20;99.90
20690;DHT22;10504;48.762;8.996;2024-02-04T13:16:57;9.30;99.90
20690;DHT22;10504;48.762;8.996;2024-02-04T13:19:23;9.30;99.90
20690;DHT22;10504;48.762;8.996;2024-02-04T13:21:49;9.30;99.90
20690;DHT22;10504;48.762;8.996;2024-02-04T13:24:14;9.30;99.90
20690;DHT22;10504;48.762;8.996;2024-02-04T13:26:40;9.20;99.90
20690;DHT22;10504;48.762;8.996;2024-02-04T13:29:06;9.20;99.90
20690;DHT22;10504;48.762;8.996;2024-02-04T13:31:31;9.20;99.90
20690;DHT22;10504;48.762;8.996;2024-02-04T13:33:57;9.10;99.90
20690;DHT22;10504;48.762;8.996;2024-02-04T13:36:24;9.00;99.90
20690;DHT22;10504;48.762;8.996;2024-02-04T13:38:49;9.00;99.90
20690;DHT22;10504;48.762;8.996;2024-02-04T13:41:15;9.00;99.90
20690;DHT22;10504;48.762;8.996;2024-02-04T13:43:41;8.90;99.90
20690;DHT22;10504;48.762;8.996;2024-02-04T13:46:09;8.90;99.90
20690;DHT22;10504;48.762;8.996;2024-02-04T13:48:34;8.90;99.90
20690;DHT22;10504;48.762;8.996;2024-02-04T13:51:00;8.90;99.90
20690;DHT22;10504;48.762;8.996;2024-02-04T13:53:25;8.90;99.90
20690;DHT22;10504;48.762;8.996;2024-02-04T13:55:52;8.90;99.90
20690;DHT22;10504;48.762;8.996;2024-02-04T13:58:18;8.90;99.90
20690;DHT22;10504;48.762;8.996;2024-02-04T14:00:44;8.90;99.90
20690;DHT22;10504;48.762;8.996;2024-02-04T14:03:10;8.90;99.90
20690;DHT22;10504;48.762;8.996;2024-02-04T14:05:38;8.90;99.90
20690;DHT22;10504;48.762;8.996;2024-02-04T14:08:05;8.90;99.90
20690;DHT22;10504;48.762;8.996;2024-02-04T14:10:31;8.90;99.90
20690;DHT22;10504;48.762;8.996;2024-02-04T14:12:57;8.90;99.90
20690;DHT22;10504;48.762;8.996;2024-02-04T14:15:22;8.90;99.90
20690;DHT22;10504;48.762;8.996;2024-02-04T14:17:48;8.90;99.90
20690;DHT22;10504;48.762;8.996;2024-02-04T14:20:14;8.90;99.90
20690;DHT22;10504;48.762;8.996;2024-02-04T14:22:40;8.80;99.90
20690;DHT22;10504;48.762;8.996;2024-02-04T14:25:06;8.80;99.90
20690;DHT22;10504;48.762;8.996;2024-02-04T14:27:32;8.80;99.90
20690;DHT22;10504;48.762;8.996;2024-02-04T14:29:57;8.70;99.90
20690;DHT22;10504;48.762;8.996;2024-02-04T14:32:23;8.70;99.90
20690;DHT22;10504;48.762;8.996;2024-02-04T14:34:50;8.70;99.90
20690;DHT22;10504;48.762;8.996;2024-02-04T14:37:16;8.70;99.90
20690;DHT22;10504;48.762;8.996;2024-02-04T14:39:41;8.70;99.90
20690;DHT22;10504;48.762;8.996;2024-02-04T14:42:10;8.60;99.90
20690;DHT22;10504;48.762;8.996;2024-02-04T14:44:35;8.60;99.90
20690;DHT22;10504;48.762;8.996;2024-02-04T14:47:01;8.60;99.90
20690;DHT22;10504;48.762;8.996;2024-02-04T14:49:27;8.50;99.90
20690;DHT22;10504;48.762;8.996;2024-02-04T14:51:52;8.50;99.90
20690;DHT22;10504;48.762;8.996;2024-02-04T14:54:18;8.50;99.90
20690;DHT22;10504;48.762;8.996;2024-02-04T14:56:44;8.50;99.90
20690;DHT22;10504;48.762;8.996;2024-02-04T14:59:13;8.50;99.90
20690;DHT22;10504;48.762;8.996;2024-02-04T15:01:39;8.40;99.90
20690;DHT22;10504;48.762;8.996;2024-02-04T15:04:05;8.40;99.90
20690;DHT22;10504;48.762;8.996;2024-02-04T15:06:31;8.50;99.90
20690;DHT22;10504;48.762;8.996;2024-02-04T15:08:58;8.40;99.90
20690;DHT22;10504;48.762;8.996;2024-02-04T15:11:25;8.50;99.90
20690;DHT22;10504;48.762;8.996;2024-02-04T15:13:52;8.40;99.90
20690;DHT22;10504;48.762;8.996;2024-02-04T15:16:18;8.40;99.90
20690;DHT22;10504;48.762;8.996;2024-02-04T15:18:44;8.40;99.90
20690;DHT22;10504;48.762;8.996;2024-02-04T15:21:10;8.40;99.90
20690;DHT22;10504;48.762;8.996;2024-02-04T15:23:36;8.40;99.90
20690;DHT22;10504;48.762;8.996;2024-02-04T15:26:03;8.40;99.90
20690;DHT22;10504;48.762;8.996;2024-02-04T15:28:33;8.40;99.90
20690;DHT22;10504;48.762;8.996;2024-02-04T15:30:59;8.40;99.90
20690;DHT22;10504;48.762;8.996;2024-02-04T15:33:25;8.40;99.90
20690;DHT22;10504;48.762;8.996;2024-02-04T15:35:51;8.40;99.90
20690;DHT22;10504;48.762;8.996;2024-02-04T15:38:17;8.40;99.90
20690;DHT22;10504;48.762;8.996;2024-02-04T15:40:43;8.30;99.90
20690;DHT22;10504;48.762;8.996;2024-02-04T15:43:09;8.40;99.90
20690;DHT22;10504;48.762;8.996;2024-02-04T15:45:35;8.30;99.90
20690;DHT22;10504;48.762;8.996;2024-02-04T15:48:03;8.30;99.90
20690;DHT22;10504;48.762;8.996;2024-02-04T15:50:30;8.20;99.90